Time;durP1;ratioP1;P1;durP2;ratioP2;P2;SDS_P1;SDS_P2;PMS_P1;PMS_P2;Temp;Humidity;BMP_temperature;BMP_pressure;BME280_temperature;BME280_humidity;BME280_pressure;Samples;Min_cycle;Max_cycle;Signal;HPM_P1;HPM_P2
2021/10/19 00:01:57;;;;;;;9.80;6.28;;;7.00;99.90;;;;;;5026681;28;20219;-62
2021/10/19 00:04:26;;;;;;;10.60;5.70;;;7.00;99.90;;;;;;5035462;28;20283;-63
2021/10/19 00:06:51;;;;;;;10.07;7.00;;;7.00;99.90;;;;;;5066097;28;20166;-62
2021/10/19 00:09:23;;;;;;;8.10;6.73;;;7.00;99.90;;;;;;5066189;28;20190;-63
2021/10/19 00:11:49;;;;;;;9.75;7.05;;;7.00;99.90;;;;;;5037392;28;20172;-62
2021/10/19 00:14:14;;;;;;;7.93;6.83;;;7.00;99.90;;;;;;5026432;28;20199;-62
2021/10/19 00:16:40;;;;;;;8.90;6.63;;;7.00;99.90;;;;;;5026370;28;20184;-62
2021/10/19 00:19:06;;;;;;;5.30;4.73;;;7.00;99.90;;;;;;5029909;28;20296;-62
2021/10/19 00:21:32;;;;;;;10.63;7.57;;;6.90;99.90;;;;;;5045480;28;20168;-63
2021/10/19 00:23:57;;;;;;;8.45;5.63;;;6.90;99.90;;;;;;5046349;28;20188;-62
2021/10/19 00:26:23;;;;;;;5.33;4.70;;;6.90;99.90;;;;;;5047245;28;20162;-62
2021/10/19 00:28:49;;;;;;;7.00;5.80;;;6.90;99.90;;;;;;5040151;28;20424;-62
2021/10/19 00:31:14;;;;;;;11.40;7.60;;;6.90;99.90;;;;;;5030312;28;20475;-61
2021/10/19 00:33:40;;;;;;;8.73;5.10;;;6.90;99.90;;;;;;5031780;28;20236;-61
2021/10/19 00:36:06;;;;;;;13.00;7.27;;;6.90;99.90;;;;;;5049693;28;20212;-62
2021/10/19 00:38:32;;;;;;;11.57;8.20;;;6.90;99.90;;;;;;5049425;28;20340;-62
2021/10/19 00:40:57;;;;;;;11.93;7.50;;;6.90;99.90;;;;;;5049743;28;20180;-61
2021/10/19 00:43:26;;;;;;;10.87;7.63;;;7.00;99.90;;;;;;5049614;28;20257;-62
2021/10/19 00:45:52;;;;;;;11.73;8.23;;;7.00;99.90;;;;;;5049149;28;20270;-63
2021/10/19 00:48:24;;;;;;;10.80;6.65;;;7.00;99.90;;;;;;5048370;28;20203;-63
2021/10/19 00:50:51;;;;;;;7.75;6.53;;;7.00;99.90;;;;;;5049476;28;20169;-61
2021/10/19 00:53:18;;;;;;;8.10;6.35;;;7.00;99.90;;;;;;5049403;28;20467;-62
2021/10/19 00:55:44;;;;;;;7.75;6.43;;;7.00;99.90;;;;;;5049327;28;20426;-61
2021/10/19 00:58:10;;;;;;;9.05;6.22;;;7.00;99.90;;;;;;5048532;28;20318;-62
2021/10/19 01:00:36;;;;;;;10.43;7.23;;;7.00;99.90;;;;;;5049331;28;20387;-62
2021/10/19 01:03:03;;;;;;;12.02;7.55;;;7.00;99.90;;;;;;5049029;28;20178;-63
2021/10/19 01:05:29;;;;;;;9.20;7.68;;;7.00;99.90;;;;;;5049346;28;20165;-62
2021/10/19 01:07:58;;;;;;;10.00;8.13;;;7.00;99.90;;;;;;5048922;28;20185;-62
2021/10/19 01:10:24;;;;;;;9.27;6.20;;;7.00;99.90;;;;;;5049203;28;20422;-63
2021/10/19 01:12:50;;;;;;;11.67;7.23;;;7.00;99.90;;;;;;5048679;28;20339;-62
2021/10/19 01:15:17;;;;;;;10.27;6.50;;;7.00;99.90;;;;;;5048197;28;20386;-62
2021/10/19 01:17:48;;;;;;;9.60;7.78;;;7.00;99.90;;;;;;5048384;28;20466;-62
2021/10/19 01:20:25;;;;;;;5.40;4.95;;;7.00;99.90;;;;;;5028921;28;20197;-62
2021/10/19 01:22:53;;;;;;;9.75;7.30;;;7.00;99.90;;;;;;5029069;28;20203;-61
2021/10/19 01:25:20;;;;;;;11.25;7.18;;;7.10;99.90;;;;;;5029066;28;20187;-62
2021/10/19 01:27:55;;;;;;;7.28;6.20;;;7.10;99.90;;;;;;5041283;28;20298;-63
2021/10/19 01:30:21;;;;;;;6.70;6.00;;;7.10;99.90;;;;;;5048895;28;20302;-62
2021/10/19 01:32:47;;;;;;;10.40;6.53;;;7.20;99.90;;;;;;5046070;28;20220;-62
2021/10/19 01:35:14;;;;;;;11.20;7.00;;;7.20;99.90;;;;;;5028905;28;20190;-63
2021/10/19 01:37:42;;;;;;;9.85;7.38;;;7.10;99.90;;;;;;5027612;28;20350;-63
2021/10/19 01:40:10;;;;;;;13.57;8.18;;;7.10;99.90;;;;;;5029647;28;20164;-61
2021/10/19 01:42:37;;;;;;;9.98;7.13;;;7.10;99.90;;;;;;5048748;28;20273;-61
2021/10/19 01:45:03;;;;;;;7.88;7.05;;;7.10;99.90;;;;;;5048625;28;20208;-62
2021/10/19 01:47:29;;;;;;;10.60;6.53;;;7.10;99.90;;;;;;5046891;28;20192;-62
2021/10/19 01:49:55;;;;;;;9.23;6.07;;;7.20;99.90;;;;;;5027801;28;20381;-62
2021/10/19 01:52:21;;;;;;;7.97;6.80;;;7.20;99.90;;;;;;5027604;28;20212;-62
2021/10/19 01:54:46;;;;;;;10.65;9.15;;;7.30;99.90;;;;;;5040943;28;20504;-61
2021/10/19 01:57:12;;;;;;;8.77;6.53;;;7.30;99.90;;;;;;5047903;28;20172;-62
2021/10/19 01:59:38;;;;;;;7.63;6.47;;;7.30;99.90;;;;;;5048339;28;20193;-61
2021/10/19 02:02:03;;;;;;;9.27;6.67;;;7.30;99.90;;;;;;5048162;28;20168;-63
2021/10/19 02:04:29;;;;;;;8.33;6.03;;;7.30;99.90;;;;;;5041147;28;20232;-62
2021/10/19 02:06:55;;;;;;;10.40;6.80;;;7.30;99.90;;;;;;5029147;28;20165;-61
2021/10/19 02:09:20;;;;;;;12.33;6.40;;;7.30;99.90;;;;;;5038009;28;20193;-62
2021/10/19 02:11:46;;;;;;;8.93;6.27;;;7.30;99.90;;;;;;5028209;28;20298;-62
2021/10/19 02:14:11;;;;;;;8.77;7.70;;;7.40;99.90;;;;;;5028118;28;20374;-62
2021/10/19 02:16:37;;;;;;;6.93;6.10;;;7.40;99.90;;;;;;5027881;28;20188;-62
2021/10/19 02:19:02;;;;;;;9.47;7.00;;;7.50;99.90;;;;;;5027950;28;20209;-61
2021/10/19 02:21:28;;;;;;;11.57;7.33;;;7.40;99.90;;;;;;5027933;28;20197;-61
2021/10/19 02:23:54;;;;;;;9.13;8.10;;;7.50;99.90;;;;;;5038426;28;20319;-61
2021/10/19 02:26:19;;;;;;;8.20;6.13;;;7.50;99.90;;;;;;5047350;28;20176;-61
2021/10/19 02:28:45;;;;;;;9.50;7.33;;;7.50;99.90;;;;;;5047174;28;20189;-62
2021/10/19 02:31:12;;;;;;;6.47;5.73;;;7.50;99.90;;;;;;5046504;28;20241;-61
2021/10/19 02:33:38;;;;;;;12.30;7.32;;;7.50;99.90;;;;;;5046819;28;20328;-62
2021/10/19 02:36:03;;;;;;;10.38;7.03;;;7.50;99.90;;;;;;5046981;28;20278;-63
2021/10/19 02:38:29;;;;;;;9.63;7.60;;;7.50;99.90;;;;;;5046137;28;20196;-62
2021/10/19 02:40:55;;;;;;;8.73;7.80;;;7.50;99.90;;;;;;5047337;28;20193;-62
2021/10/19 02:43:20;;;;;;;7.17;6.50;;;7.50;99.90;;;;;;5047100;28;20181;-62
2021/10/19 02:45:47;;;;;;;8.27;6.30;;;7.50;99.90;;;;;;5046907;28;20174;-62
2021/10/19 02:48:12;;;;;;;8.98;7.38;;;7.60;99.90;;;;;;5038757;28;20203;-61
2021/10/19 02:50:38;;;;;;;15.03;7.90;;;7.60;99.90;;;;;;5027167;28;20190;-61
2021/10/19 02:53:04;;;;;;;7.27;6.57;;;7.60;99.90;;;;;;5027416;28;20219;-62
2021/10/19 02:55:29;;;;;;;9.07;6.77;;;7.70;99.90;;;;;;5032085;28;20244;-62
2021/10/19 02:57:55;;;;;;;9.50;8.60;;;7.70;99.90;;;;;;5046792;28;20219;-62
2021/10/19 03:00:21;;;;;;;8.17;7.23;;;7.70;99.90;;;;;;5047075;28;20217;-62
2021/10/19 03:02:46;;;;;;;8.67;6.53;;;7.80;99.90;;;;;;5046690;28;20181;-62
2021/10/19 03:05:12;;;;;;;10.97;7.40;;;7.80;99.90;;;;;;5046358;28;20443;-61
2021/10/19 03:07:38;;;;;;;9.53;6.57;;;7.90;99.90;;;;;;5046661;28;20246;-62
2021/10/19 03:10:04;;;;;;;9.33;6.43;;;7.90;99.90;;;;;;5046754;28;20173;-62
2021/10/19 03:12:30;;;;;;;7.47;6.78;;;7.90;99.90;;;;;;5046703;28;20276;-62
2021/10/19 03:14:55;;;;;;;7.97;6.57;;;8.00;99.90;;;;;;5046685;28;20162;-61
2021/10/19 03:17:21;;;;;;;9.03;6.80;;;8.00;99.90;;;;;;5026760;28;20178;-62
2021/10/19 03:19:47;;;;;;;8.07;7.37;;;7.90;99.90;;;;;;5027047;28;20200;-61
2021/10/19 03:22:12;;;;;;;9.80;6.70;;;8.00;99.90;;;;;;5027042;28;20283;-61
2021/10/19 03:24:38;;;;;;;7.83;6.10;;;8.00;99.90;;;;;;5031109;28;20193;-62
2021/10/19 03:27:04;;;;;;;11.77;6.57;;;8.00;99.90;;;;;;5046378;28;20447;-62
2021/10/19 03:29:29;;;;;;;11.03;7.10;;;8.00;99.90;;;;;;5046782;28;20170;-62
2021/10/19 03:31:55;;;;;;;7.00;6.30;;;8.00;99.90;;;;;;5046747;28;20182;-62
2021/10/19 03:34:21;;;;;;;11.57;6.87;;;7.90;99.90;;;;;;5046638;28;20193;-62
2021/10/19 03:36:46;;;;;;;9.80;7.17;;;8.00;99.90;;;;;;5046464;28;20180;-62
2021/10/19 03:39:13;;;;;;;11.83;5.83;;;7.90;99.90;;;;;;5036147;28;20203;-62
2021/10/19 03:41:38;;;;;;;7.43;6.15;;;7.90;99.90;;;;;;5045810;28;20536;-62
2021/10/19 03:44:04;;;;;;;8.00;7.20;;;8.00;99.90;;;;;;5045885;28;20181;-62
2021/10/19 03:46:29;;;;;;;9.17;7.00;;;8.00;99.90;;;;;;5045229;28;20170;-62
2021/10/19 03:48:55;;;;;;;8.13;6.80;;;8.10;99.90;;;;;;5046358;28;20229;-61
2021/10/19 03:51:21;;;;;;;5.90;5.30;;;8.10;99.90;;;;;;5046465;28;20172;-62
2021/10/19 03:53:46;;;;;;;7.67;6.37;;;8.20;99.90;;;;;;5046148;28;20220;-62
2021/10/19 03:56:12;;;;;;;8.70;7.23;;;8.30;99.90;;;;;;5046243;28;20205;-61
2021/10/19 03:58:38;;;;;;;10.03;7.00;;;8.30;99.90;;;;;;5042726;28;20264;-61
2021/10/19 04:01:03;;;;;;;6.43;5.30;;;8.40;99.90;;;;;;5027191;28;20163;-62
2021/10/19 04:03:29;;;;;;;9.03;7.67;;;8.40;99.90;;;;;;5030507;28;20243;-63
2021/10/19 04:05:54;;;;;;;7.33;5.87;;;8.30;99.90;;;;;;5030738;28;20252;-62
2021/10/19 04:08:20;;;;;;;7.80;6.63;;;8.40;99.90;;;;;;5030302;28;20303;-61
2021/10/19 04:10:46;;;;;;;6.90;5.20;;;8.30;99.90;;;;;;5049690;28;20253;-61
2021/10/19 04:13:11;;;;;;;6.50;5.70;;;8.30;99.90;;;;;;5045622;28;20233;-61
2021/10/19 04:15:37;;;;;;;5.83;5.23;;;8.30;99.90;;;;;;5069847;28;20174;-62
2021/10/19 04:18:02;;;;;;;11.00;7.10;;;8.30;99.90;;;;;;5051892;28;20298;-62
2021/10/19 04:20:28;;;;;;;8.80;6.10;;;8.30;99.90;;;;;;5030233;28;20183;-62
2021/10/19 04:22:54;;;;;;;9.90;5.90;;;8.40;99.90;;;;;;5030605;28;20194;-62
2021/10/19 04:25:19;;;;;;;10.13;5.30;;;8.40;99.90;;;;;;5047941;28;20189;-62
2021/10/19 04:27:45;;;;;;;8.40;6.53;;;8.50;99.90;;;;;;5049596;28;20289;-61
2021/10/19 04:30:11;;;;;;;8.20;5.37;;;8.50;99.90;;;;;;5049744;28;20200;-62
2021/10/19 04:32:37;;;;;;;8.90;6.95;;;8.50;99.90;;;;;;5036228;28;20224;-62
2021/10/19 04:35:03;;;;;;;10.80;7.60;;;8.50;99.90;;;;;;5029956;28;20166;-62
2021/10/19 04:37:29;;;;;;;7.20;6.50;;;8.50;99.90;;;;;;5028821;28;20197;-62
2021/10/19 04:39:54;;;;;;;8.90;6.80;;;8.50;99.90;;;;;;5045364;28;20424;-62
2021/10/19 04:42:20;;;;;;;7.53;6.83;;;8.50;99.90;;;;;;5048718;28;20381;-62
2021/10/19 04:44:48;;;;;;;7.13;6.43;;;8.50;99.90;;;;;;5049368;28;20170;-62
2021/10/19 04:47:14;;;;;;;9.75;5.55;;;8.50;99.90;;;;;;5049139;28;20178;-62
2021/10/19 04:49:40;;;;;;;6.93;6.22;;;8.50;99.90;;;;;;5049367;28;20245;-61
2021/10/19 04:52:05;;;;;;;10.77;6.87;;;8.50;99.90;;;;;;5049439;28;20219;-62
2021/10/19 04:54:31;;;;;;;9.30;7.10;;;8.50;99.90;;;;;;5048625;28;20201;-61
2021/10/19 04:56:57;;;;;;;7.70;6.27;;;8.50;99.90;;;;;;5048902;28;20482;-62
2021/10/19 04:59:23;;;;;;;9.13;6.60;;;8.50;99.90;;;;;;5049191;28;20439;-62
2021/10/19 05:01:48;;;;;;;7.50;5.40;;;8.50;99.90;;;;;;5048389;28;20165;-62
2021/10/19 05:04:15;;;;;;;5.93;5.03;;;8.60;99.90;;;;;;5049063;28;20177;-62
2021/10/19 05:06:41;;;;;;;5.60;4.80;;;8.60;99.90;;;;;;5041944;28;20166;-62
2021/10/19 05:09:07;;;;;;;7.82;6.40;;;8.60;99.90;;;;;;5042764;28;20272;-62
2021/10/19 05:11:33;;;;;;;8.33;6.17;;;8.70;99.90;;;;;;5043698;28;20166;-62
2021/10/19 05:13:58;;;;;;;6.47;5.80;;;8.70;99.90;;;;;;5028908;28;20379;-62
2021/10/19 05:16:24;;;;;;;8.17;6.20;;;8.80;99.90;;;;;;5040906;28;20229;-63
2021/10/19 05:18:49;;;;;;;6.90;5.27;;;8.90;99.90;;;;;;5048443;28;20188;-62
2021/10/19 05:21:15;;;;;;;10.20;6.20;;;8.90;99.90;;;;;;5037613;28;20171;-62
2021/10/19 05:23:41;;;;;;;9.43;5.40;;;8.90;99.90;;;;;;5029056;28;20194;-61
2021/10/19 05:26:06;;;;;;;7.53;6.40;;;9.00;99.90;;;;;;5033664;28;20297;-62
2021/10/19 05:28:32;;;;;;;8.07;6.00;;;9.00;99.90;;;;;;5036858;28;20310;-62
2021/10/19 05:30:58;;;;;;;11.33;7.40;;;9.00;99.90;;;;;;5028827;28;20163;-62
2021/10/19 05:33:24;;;;;;;9.63;6.57;;;9.00;99.90;;;;;;5028763;28;20457;-62
2021/10/19 05:35:51;;;;;;;6.68;5.53;;;9.00;99.90;;;;;;5042996;28;20297;-62
2021/10/19 05:38:17;;;;;;;6.60;5.63;;;9.10;99.90;;;;;;5048325;28;20232;-63
2021/10/19 05:40:43;;;;;;;7.60;5.50;;;9.00;99.90;;;;;;5047645;28;20194;-61
2021/10/19 05:43:08;;;;;;;6.70;4.83;;;9.10;99.90;;;;;;5048205;28;20242;-65
2021/10/19 05:45:34;;;;;;;8.40;5.93;;;9.10;99.90;;;;;;5046635;28;20177;-61
2021/10/19 05:48:00;;;;;;;7.10;6.27;;;9.10;99.90;;;;;;5047783;28;20182;-62
2021/10/19 05:50:25;;;;;;;5.93;4.57;;;9.10;99.90;;;;;;5048532;28;20166;-61
2021/10/19 05:52:51;;;;;;;7.87;5.70;;;9.10;99.90;;;;;;5047899;28;20319;-63
2021/10/19 05:55:16;;;;;;;8.93;6.43;;;9.20;99.90;;;;;;5048101;28;20193;-63
2021/10/19 05:57:42;;;;;;;7.43;6.20;;;9.20;99.90;;;;;;5038172;28;20342;-63
2021/10/19 06:00:08;;;;;;;7.83;6.93;;;9.20;99.90;;;;;;5030579;28;20242;-63
2021/10/19 06:02:34;;;;;;;7.60;5.82;;;9.20;99.90;;;;;;5047770;28;20183;-63
2021/10/19 06:05:00;;;;;;;5.30;4.70;;;9.20;99.90;;;;;;5047853;28;20167;-63
2021/10/19 06:07:25;;;;;;;8.50;6.07;;;9.30;99.90;;;;;;5029920;28;20214;-63
2021/10/19 06:09:51;;;;;;;11.20;7.13;;;9.30;99.90;;;;;;5028117;28;20263;-62
2021/10/19 06:12:17;;;;;;;8.70;6.03;;;9.30;99.90;;;;;;5039455;28;20206;-62
2021/10/19 06:14:42;;;;;;;9.67;6.93;;;9.30;99.90;;;;;;5045146;28;20246;-62
2021/10/19 06:17:12;;;;;;;7.67;6.97;;;9.30;99.90;;;;;;5039576;28;20397;-62
2021/10/19 06:19:38;;;;;;;8.00;5.55;;;9.30;99.90;;;;;;5047737;28;20209;-62
2021/10/19 06:22:03;;;;;;;10.67;5.80;;;9.40;99.90;;;;;;5047579;28;20317;-62
2021/10/19 06:24:29;;;;;;;8.27;6.03;;;9.40;99.90;;;;;;5046885;28;20387;-63
2021/10/19 06:26:55;;;;;;;5.87;5.27;;;9.40;99.90;;;;;;5046163;28;20421;-62
2021/10/19 06:29:21;;;;;;;7.40;6.80;;;9.40;99.90;;;;;;5047235;28;20205;-62
2021/10/19 06:31:46;;;;;;;6.80;5.10;;;9.40;99.90;;;;;;5047180;28;20257;-62
2021/10/19 06:34:12;;;;;;;7.97;6.00;;;9.40;99.90;;;;;;5047771;28;20170;-62
2021/10/19 06:36:38;;;;;;;6.65;5.75;;;9.40;99.90;;;;;;5047145;28;20283;-62
2021/10/19 06:39:04;;;;;;;9.02;6.90;;;9.50;99.90;;;;;;5047282;28;20190;-62
2021/10/19 06:41:31;;;;;;;8.17;5.30;;;9.50;99.90;;;;;;5046839;28;20229;-63
2021/10/19 06:43:57;;;;;;;8.52;6.25;;;9.60;99.90;;;;;;5046844;28;20529;-63
2021/10/19 06:46:23;;;;;;;5.25;4.75;;;9.60;99.90;;;;;;5047200;28;20170;-62
2021/10/19 06:48:48;;;;;;;7.87;5.33;;;9.70;99.90;;;;;;5046921;28;20190;-62
2021/10/19 06:51:14;;;;;;;7.47;5.60;;;9.70;99.90;;;;;;5047309;28;20185;-62
2021/10/19 06:53:40;;;;;;;7.60;6.37;;;9.80;99.90;;;;;;5046670;28;20313;-63
2021/10/19 06:56:06;;;;;;;12.10;6.40;;;9.80;99.90;;;;;;5047104;28;20215;-63
2021/10/19 06:58:31;;;;;;;6.30;5.23;;;9.80;99.90;;;;;;5046685;28;20189;-62
2021/10/19 07:00:59;;;;;;;4.83;4.47;;;9.80;99.90;;;;;;5046904;28;20171;-63
2021/10/19 07:03:26;;;;;;;8.23;5.22;;;9.90;99.90;;;;;;5047168;28;20174;-63
2021/10/19 07:05:52;;;;;;;7.80;5.50;;;10.00;99.90;;;;;;5047230;28;20193;-63
2021/10/19 07:08:18;;;;;;;6.95;6.25;;;10.00;99.90;;;;;;5046690;28;20201;-63
2021/10/19 07:10:43;;;;;;;3.87;3.47;;;10.10;99.90;;;;;;5046884;28;20162;-63
2021/10/19 07:13:09;;;;;;;10.70;7.00;;;10.20;99.90;;;;;;5046775;28;20466;-63
2021/10/19 07:15:36;;;;;;;7.00;5.77;;;10.20;99.90;;;;;;5046704;28;20267;-62
2021/10/19 07:18:03;;;;;;;6.20;4.80;;;10.30;99.90;;;;;;5046356;28;20448;-62
2021/10/19 07:20:29;;;;;;;5.55;5.03;;;10.40;99.90;;;;;;5046716;28;20162;-63
2021/10/19 07:22:59;;;;;;;7.97;5.10;;;10.40;99.90;;;;;;5046888;28;20214;-63
2021/10/19 07:25:26;;;;;;;7.10;4.35;;;10.50;99.90;;;;;;5046766;28;20416;-62
2021/10/19 07:27:51;;;;;;;6.18;4.90;;;10.60;99.90;;;;;;5046608;28;20243;-64
2021/10/19 07:30:17;;;;;;;9.60;5.73;;;10.70;99.90;;;;;;5046575;28;20173;-63
2021/10/19 07:32:43;;;;;;;8.30;6.43;;;10.70;99.90;;;;;;5046526;28;20194;-62
2021/10/19 07:35:09;;;;;;;9.57;6.07;;;10.80;99.90;;;;;;5046769;28;20383;-63
2021/10/19 07:37:37;;;;;;;8.80;5.27;;;10.80;99.90;;;;;;5049415;28;20182;-63
2021/10/19 07:40:07;;;;;;;8.52;6.93;;;10.70;99.90;;;;;;5050758;28;20170;-63
2021/10/19 07:42:33;;;;;;;8.75;5.55;;;10.70;99.90;;;;;;5050873;28;20386;-63
2021/10/19 07:45:04;;;;;;;7.57;5.68;;;10.70;99.90;;;;;;5050478;28;20209;-63
2021/10/19 07:47:30;;;;;;;6.40;5.80;;;10.70;99.90;;;;;;5050069;28;20209;-63
2021/10/19 07:49:56;;;;;;;5.80;5.20;;;10.60;99.90;;;;;;5050556;28;20185;-63
2021/10/19 07:52:21;;;;;;;7.83;5.87;;;10.70;99.90;;;;;;5050120;28;20205;-62
2021/10/19 07:54:47;;;;;;;7.40;6.10;;;10.70;99.90;;;;;;5038117;28;20192;-63
2021/10/19 07:57:13;;;;;;;8.33;5.87;;;10.70;99.90;;;;;;5041290;28;20176;-63
2021/10/19 07:59:38;;;;;;;8.13;6.47;;;10.70;99.90;;;;;;5049125;28;20331;-63
2021/10/19 08:02:04;;;;;;;6.90;5.33;;;10.80;99.90;;;;;;5050349;28;20189;-63
2021/10/19 08:04:30;;;;;;;7.53;4.77;;;10.90;99.90;;;;;;5050342;28;20297;-63
2021/10/19 08:06:55;;;;;;;10.30;6.60;;;11.00;99.90;;;;;;5049854;28;20665;-63
2021/10/19 08:09:21;;;;;;;7.20;4.90;;;11.30;99.90;;;;;;5049997;28;20190;-63
2021/10/19 08:11:47;;;;;;;8.90;6.83;;;11.30;99.90;;;;;;5050065;28;20280;-63
2021/10/19 08:14:13;;;;;;;8.00;6.43;;;11.40;99.90;;;;;;5049860;28;20420;-63
2021/10/19 08:16:38;;;;;;;8.77;7.20;;;11.50;99.90;;;;;;5049660;28;20374;-63
2021/10/19 08:19:05;;;;;;;8.10;6.27;;;11.60;99.90;;;;;;5049772;28;20429;-63
2021/10/19 08:21:31;;;;;;;8.97;4.73;;;11.70;99.90;;;;;;5049985;28;20481;-63
2021/10/19 08:24:00;;;;;;;7.80;5.83;;;11.80;99.90;;;;;;5049866;28;20472;-63
2021/10/19 08:26:30;;;;;;;7.30;5.13;;;11.80;99.90;;;;;;5049903;28;20537;-63
2021/10/19 08:29:01;;;;;;;6.53;5.90;;;11.90;99.90;;;;;;5049631;28;20461;-63
2021/10/19 08:31:28;;;;;;;8.45;7.05;;;11.90;99.90;;;;;;5049217;28;20400;-62
2021/10/19 08:33:56;;;;;;;10.90;7.10;;;12.00;99.90;;;;;;5049171;28;20273;-63
2021/10/19 08:36:22;;;;;;;8.93;6.40;;;12.00;99.90;;;;;;5049770;28;20430;-62
2021/10/19 08:38:49;;;;;;;7.25;5.93;;;12.10;99.90;;;;;;5049200;28;20194;-62
2021/10/19 08:41:17;;;;;;;11.60;5.88;;;12.10;99.90;;;;;;5049542;28;20213;-63
2021/10/19 08:43:43;;;;;;;12.00;5.95;;;12.00;99.90;;;;;;5049647;28;20241;-63
2021/10/19 08:46:11;;;;;;;6.75;5.97;;;12.10;99.90;;;;;;5049595;28;20267;-63
2021/10/19 08:48:38;;;;;;;6.35;5.43;;;12.00;99.90;;;;;;5048605;28;20198;-65
2021/10/19 08:51:05;;;;;;;5.25;4.55;;;12.00;99.90;;;;;;5049346;28;20210;-66
2021/10/19 08:53:34;;;;;;;7.30;5.78;;;12.00;99.90;;;;;;5049349;28;20456;-66
2021/10/19 08:55:59;;;;;;;5.72;4.95;;;12.00;99.90;;;;;;5049004;28;20240;-67
2021/10/19 08:58:25;;;;;;;9.50;6.20;;;12.00;99.90;;;;;;5049044;28;20195;-67
2021/10/19 09:01:07;;;;;;;5.70;5.10;;;12.00;99.90;;;;;;5049294;28;20268;-66
2021/10/19 09:03:33;;;;;;;8.20;6.23;;;12.00;99.90;;;;;;5049087;28;20239;-62
2021/10/19 09:06:00;;;;;;;8.00;5.80;;;12.00;99.90;;;;;;5049056;28;20385;-62
2021/10/19 09:08:26;;;;;;;5.90;5.38;;;12.10;99.90;;;;;;5048646;28;20620;-62
2021/10/19 09:10:52;;;;;;;7.87;5.73;;;12.10;99.90;;;;;;5049176;28;20167;-62
2021/10/19 09:13:19;;;;;;;9.15;4.57;;;12.10;99.90;;;;;;5049093;28;20210;-62
2021/10/19 09:15:47;;;;;;;7.63;5.73;;;12.10;99.90;;;;;;5048641;28;20172;-62
2021/10/19 09:18:14;;;;;;;6.97;5.55;;;12.10;99.90;;;;;;5048619;28;20409;-62
2021/10/19 09:20:42;;;;;;;7.60;5.53;;;12.00;99.90;;;;;;5048889;28;20306;-62
2021/10/19 09:23:12;;;;;;;5.90;5.30;;;12.00;99.90;;;;;;5048763;28;20461;-62
2021/10/19 09:25:41;;;;;;;4.35;3.33;;;12.00;99.90;;;;;;5048640;28;20677;-62
2021/10/19 09:28:12;;;;;;;6.63;3.75;;;12.00;99.90;;;;;;5048326;28;20265;-61
2021/10/19 09:30:40;;;;;;;2.38;2.17;;;12.10;99.90;;;;;;5048179;28;20171;-63
2021/10/19 09:33:09;;;;;;;3.55;2.38;;;12.30;99.90;;;;;;5048438;28;20272;-64
2021/10/19 09:35:36;;;;;;;3.83;1.88;;;12.40;99.90;;;;;;5043590;28;20205;-63
2021/10/19 09:38:08;;;;;;;1.90;1.77;;;12.60;99.90;;;;;;5030955;28;20688;-62
2021/10/19 09:40:42;;;;;;;2.40;2.20;;;12.80;99.90;;;;;;5038206;28;20193;-62
2021/10/19 09:43:13;;;;;;;2.22;2.03;;;13.00;99.90;;;;;;5028482;28;20422;-63
2021/10/19 09:45:42;;;;;;;2.50;2.40;;;13.10;99.90;;;;;;5028605;28;20195;-63
2021/10/19 09:48:15;;;;;;;2.50;2.10;;;13.30;99.90;;;;;;5028026;28;20485;-62
2021/10/19 09:50:42;;;;;;;2.90;2.70;;;13.50;99.90;;;;;;5039149;28;20588;-62
2021/10/19 09:53:12;;;;;;;2.57;2.17;;;13.60;99.90;;;;;;5048228;28;20466;-62
2021/10/19 09:55:39;;;;;;;2.03;1.93;;;13.70;99.90;;;;;;5048099;28;20405;-62
2021/10/19 09:58:05;;;;;;;1.90;1.80;;;13.70;99.90;;;;;;5047703;28;20398;-66
2021/10/19 10:00:33;;;;;;;3.57;1.93;;;13.90;99.90;;;;;;5047170;28;20468;-64
2021/10/19 10:03:05;;;;;;;1.93;1.83;;;13.90;99.90;;;;;;5048237;28;20279;-66
2021/10/19 10:05:34;;;;;;;1.70;1.60;;;14.00;99.90;;;;;;5048032;28;20406;-66
2021/10/19 10:08:01;;;;;;;1.30;1.20;;;14.10;99.90;;;;;;5047652;28;20405;-66
2021/10/19 10:10:28;;;;;;;7.83;2.10;;;14.20;99.90;;;;;;5047022;28;20390;-64
2021/10/19 10:13:12;;;;;;;5.63;2.00;;;14.30;99.90;;;;;;5047760;28;20556;-65
2021/10/19 10:15:38;;;;;;;10.07;2.40;;;14.40;99.90;;;;;;5046814;28;20641;-66
2021/10/19 10:18:09;;;;;;;3.00;1.70;;;14.40;99.90;;;;;;5047411;28;20424;-65
2021/10/19 10:20:39;;;;;;;2.80;2.03;;;14.50;99.90;;;;;;5047695;28;20222;-65
2021/10/19 10:23:15;;;;;;;3.10;2.53;;;14.50;99.90;;;;;;5047566;28;20653;-66
2021/10/19 10:25:42;;;;;;;2.07;1.93;;;14.70;99.90;;;;;;5047473;28;20383;-65
2021/10/19 10:28:17;;;;;;;2.83;2.30;;;14.70;99.90;;;;;;5047294;28;20431;-65
2021/10/19 10:30:45;;;;;;;3.00;2.70;;;14.80;99.90;;;;;;5047558;28;20375;-66
2021/10/19 10:33:11;;;;;;;2.57;2.37;;;14.80;99.90;;;;;;5047477;28;20527;-66
2021/10/19 10:35:43;;;;;;;2.40;2.00;;;14.90;99.90;;;;;;5047598;28;20375;-66
2021/10/19 10:38:09;;;;;;;2.50;2.30;;;14.90;99.90;;;;;;5046939;28;20437;-66
2021/10/19 10:40:40;;;;;;;2.60;2.40;;;14.90;99.90;;;;;;5047509;28;20455;-66
2021/10/19 10:43:38;;;;;;;3.20;2.90;;;14.90;99.90;;;;;;5047492;28;20380;-65
2021/10/19 10:46:10;;;;;;;2.23;2.10;;;14.90;99.90;;;;;;5014370;28;20428;-65
2021/10/19 10:48:36;;;;;;;3.50;2.80;;;14.90;99.90;;;;;;5046976;28;20395;-65
2021/10/19 10:51:04;;;;;;;2.63;2.43;;;15.00;99.90;;;;;;5047257;28;20406;-65
2021/10/19 10:53:41;;;;;;;2.93;2.73;;;15.00;99.90;;;;;;5046967;28;20600;-65
2021/10/19 10:56:09;;;;;;;2.00;1.80;;;15.00;99.90;;;;;;5046137;28;20459;-65
2021/10/19 10:58:37;;;;;;;2.30;2.10;;;15.00;99.90;;;;;;5046817;28;20489;-66
2021/10/19 11:01:16;;;;;;;2.60;2.40;;;15.00;99.90;;;;;;5046962;28;20408;-66
2021/10/19 11:03:43;;;;;;;2.70;2.50;;;15.00;99.90;;;;;;5047075;28;20408;-66
2021/10/19 11:06:13;;;;;;;2.53;2.33;;;15.00;99.90;;;;;;5046748;28;20527;-66
2021/10/19 11:08:39;;;;;;;1.50;1.40;;;15.00;99.90;;;;;;5045856;28;20530;-65
2021/10/19 11:11:08;;;;;;;2.43;2.33;;;15.10;99.90;;;;;;5046817;28;20379;-65
2021/10/19 11:13:46;;;;;;;1.57;1.47;;;15.20;99.90;;;;;;5046886;28;20209;-64
2021/10/19 11:16:12;;;;;;;2.23;1.57;;;15.20;99.90;;;;;;5046789;28;20428;-62
2021/10/19 11:18:37;;;;;;;1.50;1.40;;;15.30;99.90;;;;;;5046529;28;20435;-64
2021/10/19 11:21:03;;;;;;;3.73;3.30;;;15.30;99.90;;;;;;5046736;28;20170;-63
2021/10/19 11:23:29;;;;;;;1.60;1.50;;;15.30;99.90;;;;;;5046496;28;20190;-63
2021/10/19 11:25:57;;;;;;;1.70;1.60;;;15.30;99.90;;;;;;5046416;28;20197;-64
2021/10/19 11:28:23;;;;;;;1.90;1.80;;;15.40;99.90;;;;;;5046491;28;20252;-63
2021/10/19 11:30:49;;;;;;;4.63;3.67;;;15.40;99.90;;;;;;5046635;28;20387;-63
2021/10/19 11:33:15;;;;;;;2.23;2.03;;;15.50;99.90;;;;;;5035814;28;20574;-64
2021/10/19 11:35:41;;;;;;;2.03;1.93;;;15.60;99.90;;;;;;5026896;28;20515;-63
2021/10/19 11:38:07;;;;;;;1.60;1.50;;;15.70;99.90;;;;;;5034401;28;20451;-64
2021/10/19 11:40:33;;;;;;;1.90;1.70;;;15.80;99.90;;;;;;5042977;28;20384;-60
2021/10/19 11:42:59;;;;;;;2.30;1.50;;;15.90;99.90;;;;;;5027956;28;20178;-63
2021/10/19 11:45:26;;;;;;;1.30;1.17;;;16.00;99.90;;;;;;5026978;28;20419;-62
2021/10/19 11:47:54;;;;;;;1.53;1.43;;;16.10;99.90;;;;;;5034973;28;20214;-63
2021/10/19 11:50:24;;;;;;;2.13;1.93;;;16.20;99.90;;;;;;5046708;28;20479;-63
2021/10/19 11:52:51;;;;;;;1.73;1.63;;;16.20;99.90;;;;;;5046686;28;20443;-64
2021/10/19 11:55:18;;;;;;;1.03;1.00;;;16.30;99.90;;;;;;5046432;28;20521;-62
2021/10/19 11:57:51;;;;;;;1.60;1.50;;;16.40;99.90;;;;;;5046160;28;20428;-63
2021/10/19 12:00:17;;;;;;;1.93;1.57;;;16.50;99.90;;;;;;5046600;28;20703;-62
2021/10/19 12:02:57;;;;;;;2.33;1.57;;;16.60;99.90;;;;;;5046292;28;20418;-63
2021/10/19 12:05:29;;;;;;;1.80;1.70;;;16.70;99.90;;;;;;5046538;28;20408;-65
2021/10/19 12:07:56;;;;;;;2.03;1.90;;;16.80;99.90;;;;;;5046214;28;20645;-64
2021/10/19 12:10:28;;;;;;;1.77;1.67;;;17.00;99.90;;;;;;5046455;28;20545;-64
2021/10/19 12:12:58;;;;;;;7.90;2.17;;;17.00;99.90;;;;;;5045265;28;20472;-64
2021/10/19 12:15:26;;;;;;;1.77;1.67;;;17.00;99.90;;;;;;5046491;28;20418;-65
2021/10/19 12:17:55;;;;;;;2.50;1.50;;;17.00;99.90;;;;;;5046127;28;20487;-64
2021/10/19 12:20:21;;;;;;;1.43;1.33;;;16.90;99.90;;;;;;5046226;28;20395;-65
2021/10/19 12:22:47;;;;;;;1.57;1.47;;;16.90;99.90;;;;;;5048091;28;20376;-64
2021/10/19 12:25:12;;;;;;;1.63;1.53;;;16.80;99.90;;;;;;5050073;28;20167;-64
2021/10/19 12:27:38;;;;;;;2.10;1.97;;;16.90;99.90;;;;;;5049538;28;20334;-64
2021/10/19 12:30:12;;;;;;;2.20;2.10;;;16.90;99.90;;;;;;5049866;28;20174;-64
2021/10/19 12:32:38;;;;;;;2.70;2.00;;;17.00;99.90;;;;;;5049748;28;20427;-63
2021/10/19 12:35:04;;;;;;;2.03;1.93;;;17.00;99.90;;;;;;5049755;28;20427;-64
2021/10/19 12:37:32;;;;;;;1.73;1.63;;;17.10;99.90;;;;;;5049428;28;20500;-66
2021/10/19 12:40:01;;;;;;;1.53;1.43;;;17.00;99.90;;;;;;5049758;28;20403;-64
2021/10/19 12:42:26;;;;;;;1.80;1.70;;;17.00;99.90;;;;;;5049430;28;20505;-64
2021/10/19 12:44:52;;;;;;;1.67;1.57;;;17.00;99.90;;;;;;5049613;28;20384;-64
2021/10/19 12:47:18;;;;;;;4.03;1.50;;;17.00;99.90;;;;;;5049203;28;20250;-64
2021/10/19 12:49:43;;;;;;;4.07;1.77;;;17.00;99.90;;;;;;5049536;28;20249;-64